Current | Forecast
Updated: 6:10 AM JST on January 18, 2018
Observed at Toyama Airport, Japan
Temperature 39°F
Windchill 37°F
Humidity 100%
Dew Point 39°F
Wind SE at 4 mph
Pressure 30.04 in (Rising)
Conditions Mostly Cloudy
Visibility 4.3 miles
UV 0 out of 16
Clouds (FEW) : 3000 ft
Mostly Cloudy (BKN) : 4000 ft
Yesterday's Maximum 43°F
Yesterday's Minimum 37°F approx.
Yesterday's Heating Degree Days 25 approx.
Sunrise7:04 AM JST
Sunset5:05 PM JST
Moon Rise7:36 AM JST
Moon Set6:09 PM JST
Moon PhaseMoon Phase
New Moon
Raw METARSPECI RJNT 172110Z 14003KT 090V190 7000 FEW030 BKN040 BKN/// 04/04 Q1017 RMK 1CU030 5SC040 A3004


Monday
. High: 78° F.
Tuesday
. High: 71° F.
Wednesday
. High: 69° F.
Thursday
. High: 73° F.
Friday
. High: 73° F.
Saturday
. High: 69° F.
Sunday
. High: 71° F.
Monday
. High: 73° F.

Units: English | Metric

Find the Weather for any City, State or Zipcode, or Country:

U.S. State List | Severe Weather | Tropical Storms | Ski Conditions
United States | Canada | Central America | South America | Asia | Europe | Australia | Africa | Islands

Weather Underground

© Copyright 2018
The Weather Company, LLC